createdAt,value
2018-12-28T00:00:02.381Z,0
2018-12-28T00:05:02.754Z,1
2018-12-28T00:10:02.395Z,1
2018-12-28T00:15:02.915Z,1
2018-12-28T00:20:02.880Z,0
2018-12-28T00:25:02.393Z,1
2018-12-28T00:30:02.929Z,1
2018-12-28T00:35:02.503Z,1
2018-12-28T00:40:02.957Z,1
2018-12-28T00:45:02.493Z,1
2018-12-28T00:50:03.111Z,1
2018-12-28T00:55:02.599Z,1
2018-12-28T01:00:03.109Z,1
2018-12-28T01:05:03.471Z,1
2018-12-28T01:10:03.258Z,1
2018-12-28T01:15:02.785Z,1
2018-12-28T01:20:03.373Z,1
2018-12-28T01:25:02.880Z,1
2018-12-28T01:30:03.303Z,1
2018-12-28T01:35:02.945Z,1
2018-12-28T01:40:02.459Z,1
2018-12-28T01:45:02.948Z,1
2018-12-28T01:50:02.469Z,1
2018-12-28T01:55:02.959Z,1
2018-12-28T02:00:02.474Z,1
2018-12-28T02:05:03.009Z,1
2018-12-28T02:10:02.585Z,1
2018-12-28T02:15:03.059Z,1
2018-12-28T02:20:02.576Z,1
2018-12-28T02:25:03.044Z,1
2018-12-28T02:30:02.511Z,1
2018-12-28T02:35:03.069Z,1
2018-12-28T02:40:02.633Z,1
2018-12-28T02:45:03.065Z,1
2018-12-28T02:50:02.555Z,1
2018-12-28T02:55:03.006Z,1
2018-12-28T03:00:02.465Z,1
2018-12-28T03:05:02.393Z,1
2018-12-28T03:10:02.992Z,1
2018-12-28T03:15:02.481Z,1
2018-12-28T03:20:02.904Z,1
2018-12-28T03:25:02.453Z,1
2018-12-28T03:30:02.949Z,1
2018-12-28T03:35:02.505Z,1
2018-12-28T03:40:03.063Z,1
2018-12-28T03:45:02.586Z,1
2018-12-28T03:50:03.043Z,1
2018-12-28T03:55:02.681Z,1
2018-12-28T04:00:03.303Z,1
2018-12-28T04:05:02.842Z,1
2018-12-28T04:10:03.404Z,1
2018-12-28T04:15:02.915Z,1
2018-12-28T04:20:02.473Z,1
2018-12-28T04:25:03.062Z,1
2018-12-28T04:30:02.596Z,1
2018-12-28T04:35:03.119Z,1
2018-12-28T04:40:09.425Z,1
2018-12-28T04:45:02.882Z,1
2018-12-28T04:50:02.433Z,1
2018-12-28T04:55:02.900Z,1
2018-12-28T05:00:02.447Z,1
2018-12-28T05:05:02.965Z,1
2018-12-28T05:10:02.462Z,1
2018-12-28T05:15:02.981Z,1
2018-12-28T05:20:02.509Z,1
2018-12-28T05:25:03.028Z,1
2018-12-28T05:30:02.527Z,1
2018-12-28T05:35:02.913Z,1
2018-12-28T05:40:03.367Z,1
2018-12-28T05:45:02.958Z,1
2018-12-28T05:50:02.478Z,1
2018-12-28T05:55:02.966Z,1
2018-12-28T06:00:02.378Z,1
2018-12-28T06:05:02.990Z,1
2018-12-28T06:10:02.565Z,1
2018-12-28T06:15:02.971Z,1
2018-12-28T06:20:02.471Z,1
2018-12-28T06:25:02.954Z,1
2018-12-28T06:30:02.484Z,1
2018-12-28T06:35:02.997Z,1
2018-12-28T06:40:02.551Z,1
2018-12-28T06:45:03.033Z,1
2018-12-28T06:50:02.544Z,1
2018-12-28T06:55:03.051Z,1
2018-12-28T07:00:02.495Z,2
2018-12-28T07:05:03.108Z,3
2018-12-28T07:10:02.682Z,4
2018-12-28T07:15:03.201Z,7
2018-12-28T07:20:02.692Z,27
2018-12-28T07:25:03.156Z,38
2018-12-28T07:30:02.716Z,53
2018-12-28T07:35:03.240Z,62
2018-12-28T07:40:02.789Z,85
2018-12-28T07:45:03.247Z,142
2018-12-28T07:50:02.708Z,219
2018-12-28T07:55:03.176Z,319
2018-12-28T08:00:02.776Z,360
2018-12-28T08:05:03.317Z,468
2018-12-28T08:10:02.869Z,525
2018-12-28T08:15:02.359Z,453
2018-12-28T08:20:02.920Z,561
2018-12-28T08:25:02.439Z,628
2018-12-28T08:30:03.159Z,593
2018-12-28T08:35:02.694Z,593
2018-12-28T08:40:03.282Z,577
2018-12-28T08:45:02.853Z,630
2018-12-28T08:50:03.363Z,709
2018-12-28T08:55:02.843Z,730
2018-12-28T09:00:03.338Z,759
2018-12-28T09:05:02.786Z,796
2018-12-28T09:10:03.563Z,780
2018-12-28T09:15:03.163Z,823
2018-12-28T09:20:02.659Z,799
2018-12-28T09:25:03.219Z,750
2018-12-28T09:30:02.902Z,760
2018-12-28T09:35:02.430Z,793
2018-12-28T09:40:02.929Z,774
2018-12-28T09:45:02.494Z,732
2018-12-28T09:50:03.013Z,716
2018-12-28T09:55:02.597Z,726
2018-12-28T10:00:03.131Z,738
2018-12-28T10:05:02.556Z,728
2018-12-28T10:10:03.182Z,711
2018-12-28T10:15:02.699Z,662
2018-12-28T10:20:02.368Z,681
2018-12-28T10:25:02.936Z,726
2018-12-28T10:30:02.470Z,770
2018-12-28T10:35:03.085Z,798
2018-12-28T10:40:02.592Z,784
2018-12-28T10:45:03.123Z,797
2018-12-28T10:50:02.553Z,803
2018-12-28T10:55:03.100Z,819
2018-12-28T11:00:02.511Z,803
2018-12-28T11:05:03.111Z,800
2018-12-28T11:10:02.769Z,795
2018-12-28T11:15:03.309Z,802
2018-12-28T11:20:02.879Z,742
2018-12-28T11:25:02.378Z,699
2018-12-28T11:30:02.881Z,691
2018-12-28T11:35:02.437Z,638
2018-12-28T11:40:03.092Z,637
2018-12-28T11:45:02.715Z,731
2018-12-28T11:50:03.263Z,720
2018-12-28T11:55:02.755Z,731
2018-12-28T12:00:03.223Z,770
2018-12-28T12:05:02.768Z,770
2018-12-28T12:10:03.349Z,772
2018-12-28T12:15:02.831Z,789
2018-12-28T12:20:02.404Z,793
2018-12-28T12:25:02.947Z,768
2018-12-28T12:30:02.449Z,721
2018-12-28T12:35:02.978Z,671
2018-12-28T12:40:02.597Z,647
2018-12-28T12:45:03.110Z,671
2018-12-28T12:50:02.537Z,664
2018-12-28T12:55:03.061Z,654
2018-12-28T13:00:02.688Z,727
2018-12-28T13:05:02.392Z,753
2018-12-28T13:10:02.897Z,775
2018-12-28T13:15:02.389Z,765
2018-12-28T13:20:02.879Z,689
2018-12-28T13:25:03.317Z,717
2018-12-28T13:30:02.795Z,678
2018-12-28T13:35:02.627Z,639
2018-12-28T13:40:03.169Z,660
2018-12-28T13:45:02.580Z,656
2018-12-28T13:50:03.031Z,633
2018-12-28T13:55:02.535Z,609
2018-12-28T14:00:03.031Z,580
2018-12-28T14:05:02.793Z,561
2018-12-28T14:10:02.519Z,510
2018-12-28T14:15:03.045Z,464
2018-12-28T14:20:02.676Z,445
2018-12-28T14:25:03.355Z,358
2018-12-28T14:30:02.776Z,297
2018-12-28T14:35:02.397Z,281
2018-12-28T14:40:02.968Z,271
2018-12-28T14:45:02.514Z,179
2018-12-28T14:50:03.124Z,88
2018-12-28T14:55:02.623Z,72
2018-12-28T15:00:03.211Z,69
2018-12-28T15:05:02.457Z,63
2018-12-28T15:10:03.109Z,60
2018-12-28T15:15:02.636Z,55
2018-12-28T15:20:03.207Z,46
2018-12-28T15:25:02.683Z,44
2018-12-28T15:30:03.154Z,38
2018-12-28T15:35:02.734Z,32
2018-12-28T15:40:02.451Z,22
2018-12-28T15:45:03.045Z,11
2018-12-28T15:50:02.717Z,7
2018-12-28T15:55:03.250Z,4
2018-12-28T16:00:02.665Z,3
2018-12-28T16:05:02.403Z,2
2018-12-28T16:10:03.083Z,2
2018-12-28T16:15:02.589Z,2
2018-12-28T16:20:03.154Z,1
2018-12-28T16:25:02.690Z,1
2018-12-28T16:35:02.899Z,1
2018-12-28T16:40:02.562Z,1
2018-12-28T16:45:03.129Z,1
2018-12-28T16:50:02.733Z,1
2018-12-28T16:55:03.256Z,1
2018-12-28T17:00:02.881Z,1
2018-12-28T17:05:02.484Z,1
2018-12-28T17:10:03.126Z,1
2018-12-28T17:15:02.653Z,1
2018-12-28T17:20:03.242Z,1
2018-12-28T17:25:03.004Z,1
2018-12-28T17:30:02.471Z,1
2018-12-28T17:35:03.105Z,1
2018-12-28T17:40:02.694Z,1
2018-12-28T17:45:02.418Z,1
2018-12-28T17:50:03.038Z,1
2018-12-28T17:55:02.765Z,1
2018-12-28T18:00:03.361Z,1
2018-12-28T18:05:03.133Z,1
2018-12-28T18:10:02.801Z,1
2018-12-28T18:15:02.412Z,1
2018-12-28T18:20:03.327Z,1
2018-12-28T18:25:03.173Z,1
2018-12-28T18:30:02.710Z,1
2018-12-28T18:35:02.396Z,1
2018-12-28T18:40:03.159Z,1
2018-12-28T18:45:02.841Z,1
2018-12-28T18:50:02.454Z,1
2018-12-28T18:55:03.035Z,1
2018-12-28T19:00:02.657Z,1
2018-12-28T19:05:02.529Z,1
2018-12-28T19:10:03.307Z,1
2018-12-28T19:15:02.952Z,1
2018-12-28T19:20:02.550Z,1
2018-12-28T19:25:03.322Z,1
2018-12-28T19:30:02.970Z,1
2018-12-28T19:35:02.545Z,1
2018-12-28T19:40:03.298Z,1
2018-12-28T19:45:02.847Z,1
2018-12-28T19:50:02.458Z,1
2018-12-28T19:55:03.204Z,1
2018-12-28T20:00:02.747Z,1
2018-12-28T20:05:02.604Z,1
2018-12-28T20:10:02.514Z,1
2018-12-28T20:15:03.179Z,1
2018-12-28T20:20:02.881Z,1
2018-12-28T20:25:02.601Z,1
2018-12-28T20:30:02.393Z,1
2018-12-28T20:35:03.025Z,1
2018-12-28T20:40:02.944Z,1
2018-12-28T20:45:02.553Z,1
2018-12-28T20:50:03.160Z,1
2018-12-28T20:55:02.785Z,1
2018-12-28T21:00:03.387Z,1
2018-12-28T21:05:03.136Z,1
2018-12-28T21:10:02.801Z,1
2018-12-28T21:15:03.352Z,1
2018-12-28T21:20:03.030Z,1
2018-12-28T21:25:02.603Z,1
2018-12-28T21:30:03.461Z,1
2018-12-28T21:35:02.995Z,1
2018-12-28T21:40:02.619Z,1
2018-12-28T21:45:02.594Z,1
2018-12-28T21:50:03.278Z,1
2018-12-28T21:55:02.814Z,1
2018-12-28T22:00:03.326Z,1
2018-12-28T22:05:03.029Z,1
2018-12-28T22:10:02.606Z,1
2018-12-28T22:15:03.250Z,1
2018-12-28T22:20:02.784Z,1
2018-12-28T22:25:02.532Z,1
2018-12-28T22:30:03.068Z,1
2018-12-28T22:35:02.691Z,1
2018-12-28T22:40:03.160Z,1
2018-12-28T22:45:02.731Z,1
2018-12-28T22:50:03.109Z,1
2018-12-28T22:55:02.566Z,1
2018-12-28T23:00:03.103Z,1
2018-12-28T23:05:02.621Z,1
2018-12-28T23:10:03.329Z,1
2018-12-28T23:15:02.907Z,1
2018-12-28T23:20:02.611Z,1
2018-12-28T23:25:03.333Z,1
2018-12-28T23:30:02.749Z,1
2018-12-28T23:35:03.263Z,1
2018-12-28T23:40:02.826Z,1
2018-12-28T23:45:03.223Z,1
2018-12-28T23:50:02.691Z,1
2018-12-28T23:55:03.158Z,1
